Time;durP1;ratioP1;P1;durP2;ratioP2;P2;SDS_P1;SDS_P2;PMS_P1;PMS_P2;Temp;Humidity;BMP_temperature;BMP_pressure;BME280_temperature;BME280_humidity;BME280_pressure;Samples;Min_cycle;Max_cycle;Signal;HPM_P1;HPM_P2
2022/09/05 00:02:20;;;;;;;6.20;3.90;;;;;;;12.59;58.37;100118.85;25007;1318;3051383;-62
2022/09/05 00:04:53;;;;;;;8.00;3.80;;;;;;;12.53;58.58;100117.60;25019;1318;3069646;-59
2022/09/05 00:08:00;;;;;;;11.50;4.30;;;;;;;12.41;58.85;100119.70;25037;1318;3049729;-61
2022/09/05 00:10:47;;;;;;;12.10;5.10;;;;;;;12.35;59.50;100120.58;25050;1315;3054875;-59
2022/09/05 00:13:20;;;;;;;15.50;7.00;;;;;;;12.39;59.41;100114.23;25088;1318;3052738;-59
2022/09/05 00:16:08;;;;;;;33.00;11.90;;;;;;;12.39;59.86;100112.63;24966;1318;3026786;-59
2022/09/05 00:18:45;;;;;;;66.80;22.60;;;;;;;12.37;60.09;100112.41;24907;1321;3051769;-61
2022/09/05 00:21:18;;;;;;;64.30;23.10;;;;;;;12.34;60.09;100110.81;25033;1316;3056064;-59
2022/09/05 00:24:09;;;;;;;70.70;26.20;;;;;;;12.42;59.51;100105.24;25023;1316;3054947;-62
2022/09/05 00:26:54;;;;;;;74.50;23.90;;;;;;;12.37;59.44;100106.41;25077;1316;3070988;-58
2022/09/05 00:29:38;;;;;;;63.60;23.00;;;;;;;12.39;59.17;100109.13;25071;1316;3052135;-60
2022/09/05 00:32:40;;;;;;;40.20;15.90;;;;;;;12.38;58.97;100111.83;25052;1316;3054068;-59
2022/09/05 00:35:23;;;;;;;28.80;11.90;;;;;;;12.42;58.60;100108.07;25051;1316;3054498;-59
2022/09/05 00:37:52;;;;;;;27.10;13.30;;;;;;;12.44;58.66;100113.02;25057;1316;3058767;-61
2022/09/05 00:40:28;;;;;;;34.00;18.70;;;;;;;12.49;57.87;100113.97;25107;1316;3026490;-59
2022/09/05 00:43:01;;;;;;;37.20;22.20;;;;;;;12.49;57.79;100114.19;25065;1316;3054972;-60
2022/09/05 00:45:32;;;;;;;32.40;19.70;;;;;;;12.51;57.78;100110.55;25059;1316;3026387;-59
2022/09/05 00:48:05;;;;;;;22.80;10.80;;;;;;;12.52;58.47;100106.64;25040;1316;3027463;-61
2022/09/05 00:50:53;;;;;;;11.60;7.00;;;;;;;12.58;59.61;100109.06;25097;1316;3055685;-60
2022/09/05 00:53:32;;;;;;;12.60;7.90;;;;;;;12.59;60.93;100106.52;25048;1316;3053323;-60
2022/09/05 00:56:22;;;;;;;22.10;13.70;;;;;;;12.58;61.98;100102.06;25085;1316;3068991;-60
2022/09/05 00:59:45;;;;;;;18.00;8.50;;;;;;;12.54;62.92;100101.36;25059;1316;3049407;-59
2022/09/05 01:02:44;;;;;;;29.00;15.90;;;;;;;12.58;63.17;100102.94;25092;1316;3055829;-61
2022/09/05 01:05:25;;;;;;;18.50;9.70;;;;;;;12.66;62.75;100100.88;24955;1316;3053171;-59
2022/09/05 01:08:29;;;;;;;8.20;5.70;;;;;;;12.66;62.00;100101.77;25037;1316;3059185;-61
2022/09/05 01:11:20;;;;;;;7.80;5.20;;;;;;;12.62;61.94;100098.83;25020;1316;3053611;-60
2022/09/05 01:14:00;;;;;;;11.90;6.90;;;;;;;12.61;61.45;100094.67;25015;1316;3055119;-60
2022/09/05 01:17:17;;;;;;;16.80;8.30;;;;;;;12.60;61.53;100098.41;25079;1316;3055059;-59
2022/09/05 01:19:56;;;;;;;9.10;6.00;;;;;;;12.55;61.55;100090.63;25047;1318;3070814;-61
2022/09/05 01:22:43;;;;;;;10.10;6.10;;;;;;;12.59;61.61;100090.94;25055;1315;3048778;-60
2022/09/05 01:25:33;;;;;;;12.10;7.20;;;;;;;12.51;62.25;100092.09;25036;1315;3055062;-61
2022/09/05 01:28:14;;;;;;;9.90;5.80;;;;;;;12.50;62.49;100092.83;25031;1315;3055167;-59
2022/09/05 01:30:56;;;;;;;13.00;7.10;;;;;;;12.46;62.97;100094.13;24973;1315;3056844;-60
2022/09/05 01:33:28;;;;;;;5.70;3.70;;;;;;;12.41;63.26;100092.48;24926;1317;3053035;-61
2022/09/05 01:36:22;;;;;;;3.90;3.00;;;;;;;12.39;62.65;100092.96;25009;1315;3029573;-61
2022/09/05 01:39:17;;;;;;;4.20;2.20;;;;;;;12.36;62.47;100092.42;25014;1318;3052934;-59
2022/09/05 01:42:11;;;;;;;3.20;2.10;;;;;;;12.39;62.73;100092.06;25079;1315;3068151;-61
2022/09/05 01:45:05;;;;;;;3.00;2.20;;;;;;;12.43;62.02;100095.00;25021;1315;3049143;-61
2022/09/05 01:47:50;;;;;;;3.80;1.80;;;;;;;12.46;61.26;100093.41;24976;1315;3053276;-59
2022/09/05 01:50:43;;;;;;;3.40;2.10;;;;;;;12.49;61.32;100092.36;25024;1315;3052729;-61
2022/09/05 01:53:24;;;;;;;3.30;2.10;;;;;;;12.51;61.81;100088.91;25014;1315;3059355;-60
2022/09/05 01:56:15;;;;;;;4.20;2.10;;;;;;;12.46;62.43;100089.92;25029;1315;3048669;-60
2022/09/05 01:59:02;;;;;;;3.90;2.10;;;;;;;12.43;62.99;100087.10;24999;1314;3055315;-60
2022/09/05 02:01:41;;;;;;;3.00;1.70;;;;;;;12.43;62.69;100087.78;24998;1315;3052976;-61
2022/09/05 02:04:44;;;;;;;2.00;1.70;;;;;;;12.45;61.81;100087.37;25025;1316;3071328;-60
2022/09/05 02:07:21;;;;;;;2.50;1.70;;;;;;;12.45;61.31;100088.08;24984;1315;3050641;-61
2022/09/05 02:10:06;;;;;;;3.20;1.70;;;;;;;12.47;62.47;100076.87;25099;1315;3052741;-60
2022/09/05 02:12:48;;;;;;;6.50;1.90;;;;;;;12.46;63.37;100071.45;25084;1315;3052849;-58
2022/09/05 02:15:19;;;;;;;3.20;1.80;;;;;;;12.47;63.74;100066.86;25012;1315;3058722;-67
2022/09/05 02:17:55;;;;;;;3.20;1.60;;;;;;;12.47;63.58;100063.35;25092;1315;3026138;-59
2022/09/05 02:20:33;;;;;;;3.20;1.50;;;;;;;12.54;63.72;100063.80;25069;1315;3055346;-63
2022/09/05 02:23:18;;;;;;;4.40;1.60;;;;;;;12.54;64.10;100061.84;25136;1314;3051009;-60
2022/09/05 02:26:07;;;;;;;;;;;;;;;12.55;64.06;100064.62;25049;1315;3071660;-60
2022/09/05 02:28:42;;;;;;;4.60;1.60;;;;;;;12.51;64.06;100062.17;25117;1316;3048608;-59
2022/09/05 02:31:51;;;;;;;3.00;1.50;;;;;;;12.48;64.25;100063.10;25058;1316;3055565;-59
2022/09/05 02:34:39;;;;;;;3.20;1.90;;;;;;;12.51;63.65;100064.87;25119;1316;3053672;-58
2022/09/05 02:37:20;;;;;;;5.50;1.90;;;;;;;12.49;63.50;100068.33;25096;1316;3056252;-58
2022/09/05 02:39:51;;;;;;;4.60;1.80;;;;;;;12.48;63.70;100061.01;25033;1316;3052538;-60
2022/09/05 02:42:23;;;;;;;3.90;2.40;;;;;;;12.45;63.55;100065.21;25055;1316;3026168;-58
2022/09/05 02:45:02;;;;;;;7.60;3.00;;;;;;;12.42;63.78;100066.26;25116;1316;3027310;-58
2022/09/05 02:47:37;;;;;;;6.70;3.30;;;;;;;12.40;63.68;100068.81;25067;1316;3071587;-57
2022/09/05 02:50:38;;;;;;;8.30;3.10;;;;;;;12.39;63.74;100069.77;25046;1316;3051209;-58
2022/09/05 02:53:07;;;;;;;10.10;3.80;;;;;;;12.34;64.19;100071.11;25101;1316;3054739;-63
2022/09/05 02:55:54;;;;;;;7.90;3.80;;;;;;;12.33;64.12;100073.96;25036;1316;3026452;-59
2022/09/05 02:58:58;;;;;;;8.40;3.30;;;;;;;12.36;64.09;100069.59;25059;1316;3059321;-58
2022/09/05 03:01:35;;;;;;;7.80;2.80;;;;;;;12.31;64.59;100075.20;25046;1316;3052911;-60
2022/09/05 03:04:22;;;;;;;10.10;2.80;;;;;;;12.26;64.78;100080.33;25016;1316;3055967;-64
2022/09/05 03:07:00;;;;;;;7.90;2.70;;;;;;;12.27;64.83;100083.46;25047;1313;3051107;-60
2022/09/05 03:10:04;;;;;;;5.30;2.90;;;;;;;12.28;64.55;100082.86;25066;1313;3071844;-58
2022/09/05 03:13:13;;;;;;;7.30;2.70;;;;;;;12.24;65.19;100081.19;24936;1313;3048420;-61
2022/09/05 03:16:01;;;;;;;8.80;3.70;;;;;;;12.22;65.41;100085.15;25110;1313;3052738;-59
2022/09/05 03:19:07;;;;;;;11.70;3.30;;;;;;;12.24;64.91;100084.70;25075;1316;3054877;-63
2022/09/05 03:22:15;;;;;;;8.10;2.50;;;;;;;12.25;66.03;100096.41;25077;1313;3059547;-60
2022/09/05 03:25:21;;;;;;;5.60;2.30;;;;;;;13.22;63.66;100089.98;24986;1315;3052380;-60
2022/09/05 03:28:02;;;;;;;8.40;2.90;;;;;;;13.55;62.18;100091.47;25117;1315;3054431;-60
2022/09/05 03:30:44;;;;;;;9.50;3.50;;;;;;;13.45;62.21;100089.80;25052;1315;3054467;-60
2022/09/05 03:33:35;;;;;;;7.20;3.20;;;;;;;13.32;62.90;100088.13;25009;1315;3070945;-61
2022/09/05 03:36:39;;;;;;;8.90;2.90;;;;;;;13.16;63.29;100090.98;25058;1315;3051912;-58
2022/09/05 03:39:34;;;;;;;7.30;3.10;;;;;;;13.00;63.81;100083.21;25017;1315;3054635;-61
2022/09/05 03:42:25;;;;;;;7.40;3.50;;;;;;;12.90;64.05;100089.23;25030;1315;3052967;-60
2022/09/05 03:45:04;;;;;;;10.30;2.50;;;;;;;12.81;64.29;100088.06;25072;1315;3058730;-62
2022/09/05 03:47:52;;;;;;;9.20;3.70;;;;;;;12.78;64.30;100090.51;25000;1315;3052664;-62
2022/09/05 03:50:36;;;;;;;8.60;3.30;;;;;;;12.72;64.71;100092.41;25011;1315;3056477;-59
2022/09/05 03:53:14;;;;;;;12.70;4.10;;;;;;;12.64;65.19;100091.33;25062;1315;3051731;-60
2022/09/05 03:56:20;;;;;;;7.50;3.30;;;;;;;12.58;65.59;100095.73;25068;1315;3071264;-59
2022/09/05 03:59:11;;;;;;;7.80;3.10;;;;;;;12.49;66.45;100096.63;25044;1315;3051498;-60
2022/09/05 04:01:42;;;;;;;10.20;3.40;;;;;;;12.48;66.88;100099.61;25110;1315;3054807;-60
2022/09/05 04:04:22;;;;;;;9.40;3.60;;;;;;;12.50;66.64;100098.64;25094;1315;3029736;-61
2022/09/05 04:07:21;;;;;;;6.60;2.40;;;;;;;12.49;67.03;100100.65;25076;1315;3059109;-62
2022/09/05 04:10:22;;;;;;;6.10;2.60;;;;;;;13.37;65.58;100100.62;25111;1314;3049895;-62
2022/09/05 04:12:56;;;;;;;11.80;3.40;;;;;;;13.74;63.95;100099.96;25011;1315;3053562;-60
2022/09/05 04:15:38;;;;;;;5.10;2.50;;;;;;;13.56;64.44;100099.11;25048;1315;3054361;-61
2022/09/05 04:18:27;;;;;;;12.10;2.90;;;;;;;13.45;64.83;100105.29;25006;1315;3067547;-62
2022/09/05 04:21:25;;;;;;;6.80;2.90;;;;;;;13.24;65.63;100107.95;25091;1313;3053713;-61
2022/09/05 04:24:10;;;;;;;6.90;3.30;;;;;;;13.19;65.39;100112.14;25012;1313;3052192;-60
2022/09/05 04:27:15;;;;;;;9.50;4.10;;;;;;;12.99;65.94;100113.53;25075;1313;3052139;-59
2022/09/05 04:30:02;;;;;;;11.70;5.10;;;;;;;12.81;66.09;100112.66;25080;1313;3058682;-61
2022/09/05 04:32:49;;;;;;;10.70;5.50;;;;;;;12.72;66.61;100109.47;25053;1313;3049676;-62
2022/09/05 04:35:27;;;;;;;18.10;8.50;;;;;;;12.77;66.59;100110.44;25057;1316;3055912;-62
2022/09/05 04:38:33;;;;;;;32.10;12.20;;;;;;;12.75;66.25;100111.77;25063;1313;3054180;-60
2022/09/05 04:41:17;;;;;;;43.00;14.80;;;;;;;12.55;66.58;100115.56;25026;1313;3071497;-59
2022/09/05 04:43:46;;;;;;;39.00;13.10;;;;;;;12.62;66.10;100114.83;25052;1313;3051423;-61
2022/09/05 04:46:27;;;;;;;35.00;13.00;;;;;;;12.58;66.26;100116.25;25058;1313;3026700;-60
2022/09/05 04:49:05;;;;;;;29.00;10.20;;;;;;;12.72;65.87;100115.83;25053;1313;3055322;-60
2022/09/05 04:51:56;;;;;;;19.00;8.10;;;;;;;12.65;65.35;100123.77;25080;1316;3056542;-60
2022/09/05 04:54:34;;;;;;;18.40;7.60;;;;;;;12.61;64.78;100121.39;25078;1316;3052117;-60
2022/09/05 04:57:06;;;;;;;16.50;7.20;;;;;;;12.70;64.75;100120.48;25092;1313;3052953;-59
2022/09/05 05:00:06;;;;;;;15.70;7.10;;;;;;;12.75;63.79;100120.17;25088;1315;3026263;-62
2022/09/05 05:02:38;;;;;;;12.30;7.10;;;;;;;12.74;63.42;100121.80;25040;1315;3071437;-62
2022/09/05 05:05:09;;;;;;;16.10;8.20;;;;;;;12.81;63.15;100115.30;25069;1315;3026828;-61
2022/09/05 05:07:42;;;;;;;17.80;9.20;;;;;;;12.85;63.54;100115.20;25121;1315;3054827;-60
2022/09/05 05:10:18;;;;;;;20.70;10.30;;;;;;;12.96;63.40;100118.27;25051;1315;3030660;-62
2022/09/05 05:13:29;;;;;;;19.80;9.50;;;;;;;12.99;63.88;100122.11;25027;1315;3049478;-62
2022/09/05 05:16:11;;;;;;;18.00;8.80;;;;;;;12.91;63.13;100116.45;25117;1318;3054560;-62
2022/09/05 05:18:45;;;;;;;18.50;9.30;;;;;;;12.87;63.41;100119.11;25091;1314;3052338;-62
2022/09/05 05:21:21;;;;;;;15.40;8.70;;;;;;;12.97;63.01;100116.80;25078;1313;3058893;-60
2022/09/05 05:23:54;;;;;;;14.10;8.20;;;;;;;13.08;62.49;100116.11;25037;1318;3050221;-58
2022/09/05 05:26:36;;;;;;;22.10;9.00;;;;;;;13.17;62.22;100119.98;25039;1315;3026815;-60
2022/09/05 05:29:13;;;;;;;19.20;9.30;;;;;;;13.23;61.69;100118.52;25139;1315;3051242;-58
2022/09/05 05:31:54;;;;;;;18.60;9.00;;;;;;;13.28;61.60;100119.87;25105;1315;3069657;-61
2022/09/05 05:34:45;;;;;;;12.80;7.70;;;;;;;13.36;61.41;100123.92;25100;1314;3049120;-59
2022/09/05 05:37:31;;;;;;;19.00;8.50;;;;;;;13.41;60.90;100123.81;25063;1315;3054756;-59
2022/09/05 05:40:07;;;;;;;14.30;7.50;;;;;;;13.50;60.81;100125.23;25093;1315;3053722;-62
2022/09/05 05:42:39;;;;;;;17.10;7.70;;;;;;;13.58;60.93;100125.06;25092;1315;3055987;-61
2022/09/05 05:45:18;;;;;;;14.80;7.00;;;;;;;13.63;59.89;100123.17;25048;1315;3027490;-59
2022/09/05 05:47:50;;;;;;;14.00;6.90;;;;;;;13.68;59.72;100121.80;25051;1317;3055555;-60
2022/09/05 05:50:37;;;;;;;17.30;7.40;;;;;;;13.75;59.14;100123.11;25145;1315;3027291;-61
2022/09/05 05:53:24;;;;;;;12.50;6.10;;;;;;;13.83;58.18;100125.09;24986;1318;3071414;-60
2022/09/05 05:56:15;;;;;;;12.30;6.40;;;;;;;13.90;57.91;100124.43;25052;1317;3049113;-61
2022/09/05 05:59:12;;;;;;;15.50;7.10;;;;;;;13.83;56.84;100131.23;25070;1316;3056041;-62
2022/09/05 06:01:57;;;;;;;17.30;7.20;;;;;;;13.85;57.18;100132.33;24994;1318;3055108;-61
2022/09/05 06:04:45;;;;;;;15.60;8.00;;;;;;;13.92;56.69;100134.01;25056;1318;3058422;-61
2022/09/05 06:07:33;;;;;;;28.40;13.00;;;;;;;14.01;55.29;100135.06;25022;1318;3051114;-61
2022/09/05 06:10:30;;;;;;;28.10;12.10;;;;;;;14.03;55.32;100131.92;25029;1317;3056336;-60
2022/09/05 06:13:12;;;;;;;33.30;13.30;;;;;;;14.12;55.59;100132.58;25046;1316;3054542;-61
2022/09/05 06:16:22;;;;;;;25.90;10.80;;;;;;;14.29;54.36;100127.96;24995;1318;3071049;-62
2022/09/05 06:19:21;;;;;;;23.60;11.10;;;;;;;14.37;53.19;100136.73;25036;1315;3051666;-62
2022/09/05 06:22:06;;;;;;;17.80;8.60;;;;;;;14.43;52.72;100136.36;25057;1315;3052460;-60
2022/09/05 06:24:35;;;;;;;;;;;;;;;14.41;51.32;100136.67;25069;1315;3054756;-60
2022/09/05 06:27:25;;;;;;;19.70;8.10;;;;;;;14.42;52.20;100137.33;25060;1315;3026181;-58
2022/09/05 06:30:07;;;;;;;15.60;8.30;;;;;;;14.60;52.56;100134.38;25015;1315;3053979;-61
2022/09/05 06:32:55;;;;;;;23.30;10.30;;;;;;;14.69;52.48;100136.92;25079;1316;3052923;-60
2022/09/05 06:36:02;;;;;;;21.40;9.90;;;;;;;14.87;52.08;100135.00;25037;1315;3051781;-59
2022/09/05 06:39:09;;;;;;;23.30;8.40;;;;;;;14.95;47.42;100136.25;25056;1315;3069658;-60
2022/09/05 06:41:59;;;;;;;29.40;10.60;;;;;;;15.10;47.97;100139.64;24871;1323;3052169;-60
2022/09/05 06:44:54;;;;;;;30.40;13.20;;;;;;;15.23;47.32;100144.90;25063;1315;3054582;-60
2022/09/05 06:47:23;;;;;;;28.00;11.70;;;;;;;15.29;46.72;100144.02;25035;1315;3055634;-59
2022/09/05 06:49:58;;;;;;;23.90;11.20;;;;;;;15.39;47.95;100141.88;25038;1313;3026471;-61
2022/09/05 06:53:05;;;;;;;20.70;8.70;;;;;;;15.46;46.00;100142.27;25050;1315;3054475;-61
2022/09/05 06:55:43;;;;;;;17.10;7.70;;;;;;;15.56;46.58;100137.86;25099;1315;3055656;-62
2022/09/05 06:58:58;;;;;;;13.40;6.30;;;;;;;15.68;46.76;100136.13;25087;1313;3056692;-60
2022/09/05 07:01:32;;;;;;;16.00;6.30;;;;;;;15.87;45.67;100135.38;24993;1317;3052290;-62
2022/09/05 07:04:09;;;;;;;9.60;4.20;;;;;;;16.02;45.46;100132.85;25033;1314;3053429;-61
2022/09/05 07:07:03;;;;;;;6.70;3.00;;;;;;;16.17;44.66;100129.44;25033;1315;3052867;-60
2022/09/05 07:09:59;;;;;;;11.60;3.30;;;;;;;16.24;42.67;100135.17;24981;1315;3071733;-60
2022/09/05 07:12:31;;;;;;;10.90;2.80;;;;;;;16.23;41.73;100134.13;25021;1315;3052938;-60
2022/09/05 07:15:13;;;;;;;7.70;3.10;;;;;;;16.38;42.03;100133.58;25009;1314;3052666;-67
2022/09/05 07:18:12;;;;;;;4.80;2.10;;;;;;;16.59;41.49;100129.21;25078;1313;3052265;-60
2022/09/05 07:20:48;;;;;;;4.60;2.10;;;;;;;16.79;41.36;100128.58;25381;1315;3056205;-60
2022/09/05 07:23:44;;;;;;;5.00;1.90;;;;;;;16.92;41.17;100125.33;25044;1313;3049987;-59
2022/09/05 07:26:14;;;;;;;7.50;2.30;;;;;;;16.97;41.05;100123.36;25030;1315;3053411;-59
2022/09/05 07:28:43;;;;;;;7.00;2.40;;;;;;;16.99;41.18;100122.48;25144;1312;3026493;-61
2022/09/05 07:31:15;;;;;;;8.60;2.50;;;;;;;17.13;41.21;100119.86;25024;1315;3026272;-61
2022/09/05 07:33:45;;;;;;;5.30;2.20;;;;;;;17.05;39.94;100122.37;25116;1313;3027455;-61
2022/09/05 07:36:20;;;;;;;6.90;2.00;;;;;;;17.17;40.55;100118.80;25081;1313;3028983;-63
2022/09/05 07:39:19;;;;;;;5.60;2.10;;;;;;;17.28;40.39;100113.84;25021;1313;3055534;-60
2022/09/05 07:41:51;;;;;;;8.50;2.80;;;;;;;17.39;39.96;100116.58;25036;1317;3057649;-62
2022/09/05 07:44:35;;;;;;;11.80;2.60;;;;;;;17.52;39.53;100113.37;25128;1313;3027027;-61
2022/09/05 07:47:18;;;;;;;4.50;1.60;;;;;;;17.71;38.27;100110.30;25091;1313;3052111;-62
2022/09/05 07:49:49;;;;;;;3.80;2.30;;;;;;;17.92;38.81;100104.02;25122;1313;3052699;-60
2022/09/05 07:52:19;;;;;;;2.90;1.90;;;;;;;18.11;39.40;100095.60;25060;1313;3026677;-62
2022/09/05 07:54:51;;;;;;;5.20;2.00;;;;;;;18.37;39.50;100099.51;25135;1313;3052575;-63
2022/09/05 07:57:21;;;;;;;4.90;1.80;;;;;;;18.59;39.45;100096.56;25065;1313;3027379;-62
2022/09/05 07:59:51;;;;;;;9.60;2.20;;;;;;;18.71;38.34;100092.00;25084;1313;3026438;-63
2022/09/05 08:02:20;;;;;;;5.90;1.90;;;;;;;18.97;38.68;100094.64;25049;1313;3026768;-60
2022/09/05 08:04:50;;;;;;;6.30;2.50;;;;;;;18.78;36.64;100099.29;25015;1317;3028322;-62
2022/09/05 08:07:28;;;;;;;4.70;1.90;;;;;;;18.46;38.22;100095.52;25004;1313;3070724;-61
2022/09/05 08:10:00;;;;;;;6.00;2.50;;;;;;;18.37;37.90;100089.90;25858;1313;3049160;-62
2022/09/05 08:12:35;;;;;;;4.20;2.10;;;;;;;18.40;38.08;100087.33;25914;1313;3027236;-59
2022/09/05 08:15:17;;;;;;;4.80;2.30;;;;;;;18.48;36.97;100089.17;25067;1313;3054846;-63
2022/09/05 08:18:13;;;;;;;5.70;2.30;;;;;;;18.66;37.64;100087.46;25039;1315;3057361;-61
2022/09/05 08:20:50;;;;;;;5.10;2.50;;;;;;;18.58;38.38;100084.44;25068;1313;3049844;-62
2022/09/05 08:23:41;;;;;;;4.90;2.60;;;;;;;18.50;37.72;100083.14;25050;1313;3052739;-62
2022/09/05 08:26:13;;;;;;;12.40;2.00;;;;;;;18.46;37.62;100080.81;25085;1316;3054710;-59
2022/09/05 08:28:52;;;;;;;4.00;2.20;;;;;;;18.15;37.08;100080.55;25081;1313;3026659;-62
2022/09/05 08:31:43;;;;;;;4.10;1.90;;;;;;;18.41;37.91;100075.92;25107;1313;3048799;-59
2022/09/05 08:34:17;;;;;;;3.10;2.00;;;;;;;18.47;37.41;100078.21;25175;1313;3055106;-60
2022/09/05 08:36:47;;;;;;;6.70;2.40;;;;;;;18.48;36.90;100079.77;25049;1315;3054996;-63
2022/09/05 08:39:21;;;;;;;3.00;1.50;;;;;;;18.45;36.59;100076.64;25108;1313;3026569;-61
2022/09/05 08:42:08;;;;;;;6.90;2.20;;;;;;;18.57;35.75;100075.84;25029;1315;3049643;-60
2022/09/05 08:44:40;;;;;;;7.20;2.20;;;;;;;18.50;36.90;100072.83;25046;1314;3056226;-61
2022/09/05 08:47:26;;;;;;;5.30;2.60;;;;;;;18.77;38.12;100070.06;25044;1313;3026441;-62
2022/09/05 08:50:19;;;;;;;9.60;2.50;;;;;;;18.94;38.51;100066.14;25083;1313;3069320;-61
2022/09/05 08:53:18;;;;;;;7.50;2.40;;;;;;;19.12;36.98;100063.75;25129;1313;3048936;-60
2022/09/05 08:56:09;;;;;;;9.50;2.20;;;;;;;19.20;36.74;100064.08;25083;1313;3051898;-62
2022/09/05 08:58:53;;;;;;;8.60;2.60;;;;;;;19.06;37.18;100065.10;25014;1313;3055147;-61
2022/09/05 09:01:25;;;;;;;;;;;;;;;18.90;36.64;100055.61;25172;1313;3057807;-60
2022/09/05 09:03:59;;;;;;;6.80;2.40;;;;;;;19.15;37.00;100051.69;25020;1313;3027238;-60
2022/09/05 09:06:31;;;;;;;4.50;2.00;;;;;;;19.29;36.18;100050.19;25127;1313;3055432;-60
2022/09/05 09:09:09;;;;;;;5.10;1.70;;;;;;;19.30;35.24;100050.02;25159;1313;3026547;-60
2022/09/05 09:11:47;;;;;;;6.00;2.30;;;;;;;19.33;33.26;100046.27;25050;1315;3070136;-61
2022/09/05 09:14:23;;;;;;;7.60;2.30;;;;;;;19.43;32.95;100049.09;25092;1315;3049097;-61
2022/09/05 09:17:03;;;;;;;4.70;1.90;;;;;;;19.55;33.38;100034.34;25065;1314;3055281;-60
2022/09/05 09:19:43;;;;;;;5.00;2.20;;;;;;;19.78;33.56;100033.93;25171;1313;3053507;-59
2022/09/05 09:22:38;;;;;;;5.30;1.50;;;;;;;19.74;32.45;100042.23;25085;1313;3058742;-62
2022/09/05 09:25:28;;;;;;;5.60;1.80;;;;;;;19.64;33.41;100034.66;25058;1315;3051949;-60
2022/09/05 09:28:19;;;;;;;3.90;1.60;;;;;;;19.77;32.93;100028.98;25111;1315;3055576;-62
2022/09/05 09:31:42;;;;;;;3.20;1.50;;;;;;;20.07;32.82;100023.35;25094;1315;3054352;-61
2022/09/05 09:34:28;;;;;;;4.80;1.50;;;;;;;20.13;31.08;100022.11;25080;1313;3069205;-61
2022/09/05 09:37:04;;;;;;;3.60;1.50;;;;;;;20.33;30.84;100015.05;25064;1313;3051560;-61
2022/09/05 09:40:17;;;;;;;7.30;1.70;;;;;;;20.60;30.79;100009.86;25132;1316;3054331;-58
2022/09/05 09:43:28;;;;;;;9.60;1.70;;;;;;;20.53;30.25;100011.98;25066;1313;3052048;-60
2022/09/05 09:46:49;;;;;;;4.50;1.60;;;;;;;20.92;30.30;100003.69;25038;1318;3055897;-61
2022/09/05 09:49:46;;;;;;;3.40;1.90;;;;;;;20.99;31.03;100010.72;24991;1313;3048760;-61
2022/09/05 09:52:43;;;;;;;10.30;1.70;;;;;;;21.19;30.35;100007.72;25066;1313;3054400;-59
2022/09/05 09:55:40;;;;;;;2.50;1.50;;;;;;;20.95;29.92;100009.23;25029;1313;3053923;-61
2022/09/05 09:58:19;;;;;;;7.90;1.70;;;;;;;20.99;30.10;99997.35;25126;1315;3070665;-65
2022/09/05 10:01:06;;;;;;;5.40;1.80;;;;;;;21.27;30.30;99998.17;25061;1315;3049997;-60
2022/09/05 10:04:05;;;;;;;7.50;1.50;;;;;;;21.35;29.38;99997.78;25059;1313;3053188;-61
2022/09/05 10:07:00;;;;;;;4.40;1.70;;;;;;;21.24;29.27;99989.98;25176;1313;3052384;-62
2022/09/05 10:09:47;;;;;;;3.70;1.80;;;;;;;21.31;28.66;99988.23;25068;1313;3058018;-61
2022/09/05 10:12:31;;;;;;;6.50;2.20;;;;;;;21.22;28.62;99991.70;25108;1313;3052745;-61
2022/09/05 10:15:21;;;;;;;7.00;2.30;;;;;;;21.18;28.60;99984.86;25112;1313;3054393;-62
2022/09/05 10:18:34;;;;;;;8.00;2.60;;;;;;;21.40;29.20;99978.20;25023;1315;3051732;-62
2022/09/05 10:21:25;;;;;;;5.40;2.30;;;;;;;21.57;29.12;99978.92;24909;1321;3071586;-61
2022/09/05 10:24:18;;;;;;;5.60;2.10;;;;;;;21.19;28.58;99978.50;24888;1322;3052315;-62
2022/09/05 10:27:04;;;;;;;5.60;2.10;;;;;;;20.98;28.96;99975.21;23817;1315;3055880;-61
2022/09/05 10:30:01;;;;;;;5.40;2.40;;;;;;;21.62;28.61;99967.55;25024;1313;3071845;-61
2022/09/05 10:32:39;;;;;;;2.40;1.60;;;;;;;22.12;27.27;99966.84;25056;1313;3049498;-60
2022/09/05 10:35:25;;;;;;;3.30;1.60;;;;;;;21.93;26.88;99961.98;25122;1313;3054527;-61
2022/09/05 10:38:13;;;;;;;7.40;1.50;;;;;;;21.71;27.36;99965.20;25185;1313;3053664;-62
2022/09/05 10:40:44;;;;;;;4.00;1.40;;;;;;;21.61;27.34;99970.00;25148;1313;3057021;-60
2022/09/05 10:43:29;;;;;;;3.90;1.50;;;;;;;21.26;27.62;99967.49;25104;1313;3026999;-59
2022/09/05 10:46:30;;;;;;;3.30;1.60;;;;;;;21.22;27.81;99970.83;25108;1313;3051690;-60
2022/09/05 10:49:03;;;;;;;5.10;1.60;;;;;;;21.15;28.38;99968.38;25057;1315;3051644;-60
2022/09/05 10:51:33;;;;;;;;;;;;;;;21.18;28.18;99961.92;25128;1313;3068776;-60
2022/09/05 10:54:18;;;;;;;3.70;1.40;;;;;;;21.02;28.22;99962.02;25107;1316;3026947;-61
2022/09/05 10:57:21;;;;;;;4.50;1.30;;;;;;;21.05;28.25;99959.38;25124;1313;3054565;-61
2022/09/05 11:00:08;;;;;;;7.30;1.60;;;;;;;21.33;28.10;99948.42;25023;1313;3055063;-65
2022/09/05 11:02:41;;;;;;;6.30;2.20;;;;;;;21.51;27.94;99951.85;25091;1316;3056709;-63
2022/09/05 11:05:33;;;;;;;6.60;2.50;;;;;;;21.57;27.86;99947.36;25074;1313;3026163;-63
2022/09/05 11:08:16;;;;;;;6.20;2.50;;;;;;;21.43;28.35;99945.29;25162;1313;3053866;-61
2022/09/05 11:10:51;;;;;;;10.90;3.50;;;;;;;21.43;28.60;99937.83;25105;1316;3053955;-62
2022/09/05 11:13:38;;;;;;;9.80;2.50;;;;;;;21.63;28.73;99937.91;25135;1313;3028136;-62
2022/09/05 11:16:20;;;;;;;4.20;1.80;;;;;;;21.68;27.57;99939.14;25081;1313;3052215;-61
2022/09/05 11:19:19;;;;;;;4.40;1.80;;;;;;;21.52;27.96;99934.98;24996;1313;3052079;-62
2022/09/05 11:25:59;;;;;;;2.80;1.30;;;;;;;21.76;28.10;99927.31;25079;1313;3056018;-61
2022/09/05 11:28:41;;;;;;;5.20;1.50;;;;;;;21.58;27.72;99928.53;25105;1315;3051425;-64
2022/09/05 11:31:13;;;;;;;4.90;1.40;;;;;;;21.50;28.14;99925.56;25019;1315;3055697;-62
2022/09/05 11:33:55;;;;;;;4.60;1.50;;;;;;;21.42;28.73;99926.23;25076;1315;3026346;-61
2022/09/05 11:36:40;;;;;;;2.40;1.40;;;;;;;21.47;28.70;99919.44;25007;1315;3069275;-62
2022/09/05 11:39:31;;;;;;;8.10;1.50;;;;;;;21.65;28.40;99914.88;24999;1319;3052315;-63
2022/09/05 11:42:10;;;;;;;2.50;1.30;;;;;;;21.97;27.96;99907.50;25069;1313;3054956;-62
2022/09/05 11:45:10;;;;;;;5.00;1.40;;;;;;;21.91;28.00;99909.17;25067;1316;3052664;-62
2022/09/05 11:47:50;;;;;;;4.80;1.30;;;;;;;22.18;27.58;99901.69;25020;1315;3058656;-63
2022/09/05 11:50:53;;;;;;;3.30;1.60;;;;;;;22.43;27.21;99897.48;25072;1313;3052228;-61
2022/09/05 11:53:53;;;;;;;5.10;1.50;;;;;;;22.74;27.52;99896.10;25093;1315;3056251;-61
2022/09/05 11:56:37;;;;;;;3.70;1.70;;;;;;;22.68;27.28;99892.46;25082;1315;3051998;-62
2022/09/05 11:59:21;;;;;;;3.50;1.60;;;;;;;22.32;27.63;99894.34;25056;1313;3071656;-63
2022/09/05 12:02:09;;;;;;;2.80;1.30;;;;;;;22.44;27.46;99883.25;25061;1315;3049624;-62
2022/09/05 12:05:19;;;;;;;6.20;1.30;;;;;;;22.75;26.24;99879.54;25041;1313;3053892;-61
2022/09/05 12:07:59;;;;;;;3.20;1.30;;;;;;;22.84;25.52;99870.89;25086;1315;3055443;-61
2022/09/05 12:10:34;;;;;;;1.60;1.10;;;;;;;22.70;26.10;99876.52;25084;1313;3058873;-61
2022/09/05 12:13:24;;;;;;;3.60;1.40;;;;;;;22.81;26.53;99872.67;25085;1315;3049561;-62
2022/09/05 12:15:53;;;;;;;3.00;1.50;;;;;;;22.30;26.34;99877.36;25055;1313;3052868;-61
2022/09/05 12:19:02;;;;;;;3.90;1.40;;;;;;;21.90;26.56;99871.21;25056;1312;3029186;-62
2022/09/05 12:21:43;;;;;;;4.80;1.20;;;;;;;21.85;26.48;99873.45;24954;1315;3052513;-60
2022/09/05 12:24:18;;;;;;;2.50;1.40;;;;;;;21.69;25.31;99868.27;25056;1313;3055204;-60
2022/09/05 12:26:54;;;;;;;;;;;;;;;21.64;25.32;99865.24;25074;1315;3050858;-60
2022/09/05 12:29:24;;;;;;;3.10;1.20;;;;;;;21.69;25.58;99872.33;25044;1313;3069772;-60
2022/09/05 12:31:57;;;;;;;4.70;1.60;;;;;;;21.51;25.79;99868.32;25042;1316;3026755;-62
2022/09/05 12:34:56;;;;;;;3.00;0.90;;;;;;;21.49;25.94;99865.29;25057;1313;3026480;-61
2022/09/05 12:37:28;;;;;;;2.80;1.30;;;;;;;21.63;26.06;99859.23;25071;1313;3055289;-62